Time;durP1;ratioP1;P1;durP2;ratioP2;P2;SDS_P1;SDS_P2;PMS_P1;PMS_P2;Temp;Humidity;BMP_temperature;BMP_pressure;BME280_temperature;BME280_humidity;BME280_pressure;Samples;Min_cycle;Max_cycle;Signal;HPM_P1;HPM_P2
2023/02/17 00:02:00;;;;;;;44.35;22.10;;;;;;;10.41;100.00;101810.69;2615319;36;20038;-56
2023/02/17 00:04:29;;;;;;;49.83;22.57;;;;;;;10.45;100.00;101812.19;2614723;36;20038;-58
2023/02/17 00:07:00;;;;;;;48.65;21.30;;;;;;;10.39;100.00;101812.59;2614921;36;20042;-57
2023/02/17 00:09:31;;;;;;;52.33;22.65;;;;;;;10.44;100.00;101810.44;2614755;36;20057;-51
2023/02/17 00:12:02;;;;;;;45.50;20.00;;;;;;;10.39;100.00;101807.22;2612999;36;20038;-55
2023/02/17 00:14:30;;;;;;;46.40;20.60;;;;;;;10.44;100.00;101805.06;2613214;31;20054;-58
2023/02/17 00:16:59;;;;;;;44.58;19.42;;;;;;;10.41;100.00;101815.19;2613747;36;20040;-56
2023/02/17 00:19:27;;;;;;;42.33;20.48;;;;;;;10.39;100.00;101811.75;2613685;31;20038;-55
2023/02/17 00:21:57;;;;;;;46.00;22.43;;;;;;;10.36;100.00;101807.44;2615325;36;20034;-52
2023/02/17 00:24:26;;;;;;;40.95;20.38;;;;;;;10.37;100.00;101805.63;2614285;36;20311;-57
2023/02/17 00:26:57;;;;;;;41.47;19.15;;;;;;;10.56;100.00;101802.47;2613849;36;20040;-55
2023/02/17 00:29:26;;;;;;;46.10;19.52;;;;;;;10.48;100.00;101795.81;2613047;31;20026;-55
2023/02/17 00:31:55;;;;;;;40.07;18.87;;;;;;;10.55;100.00;101798.88;2614737;36;20045;-55
2023/02/17 00:34:23;;;;;;;;;;;;;;;10.52;100.00;101786.50;2613311;36;20046;-56
2023/02/17 00:36:52;;;;;;;43.35;20.67;;;;;;;10.41;100.00;101793.66;2613871;36;19954;-54
2023/02/17 00:39:22;;;;;;;47.70;20.27;;;;;;;10.43;100.00;101787.19;2614121;36;20038;-55
2023/02/17 00:41:51;;;;;;;43.85;20.88;;;;;;;10.33;100.00;101784.34;2613636;36;20077;-54
2023/02/17 00:44:26;;;;;;;49.50;22.88;;;;;;;10.39;100.00;101785.69;2614070;36;20045;-54
2023/02/17 00:46:55;;;;;;;46.88;22.88;;;;;;;10.41;100.00;101785.56;2613216;36;20081;-54
2023/02/17 00:49:50;;;;;;;48.50;23.80;;;;;;;10.42;100.00;101790.84;2612670;36;20034;-56
2023/02/17 00:52:18;;;;;;;49.58;24.42;;;;;;;10.46;100.00;101784.28;2607617;36;20042;-55
2023/02/17 00:54:50;;;;;;;53.65;26.42;;;;;;;10.59;100.00;101784.22;2604171;36;20034;-55
2023/02/17 00:57:19;;;;;;;53.35;25.65;;;;;;;10.43;100.00;101787.19;2602637;36;20675;-55
2023/02/17 00:59:50;;;;;;;57.70;26.60;;;;;;;10.55;100.00;101789.97;2602199;36;20035;-57
2023/02/17 01:02:18;;;;;;;60.88;25.92;;;;;;;10.55;100.00;101785.44;2606489;36;20026;-55
2023/02/17 01:04:46;;;;;;;57.80;25.60;;;;;;;10.50;100.00;101788.47;2599571;36;21344;-54
2023/02/17 01:07:15;;;;;;;68.50;28.93;;;;;;;10.43;100.00;101779.13;2602432;36;20350;-57
2023/02/17 01:09:43;;;;;;;61.13;28.63;;;;;;;10.35;100.00;101778.84;2599504;36;20061;-54
2023/02/17 01:12:13;;;;;;;62.45;28.98;;;;;;;10.41;100.00;101773.00;2607280;36;20065;-55
2023/02/17 01:14:44;;;;;;;57.88;27.60;;;;;;;10.50;100.00;101780.38;2604990;36;20038;-55
2023/02/17 01:17:15;;;;;;;55.70;25.38;;;;;;;10.57;100.00;101778.13;2601505;36;20034;-58
2023/02/17 01:19:44;;;;;;;61.72;27.27;;;;;;;10.54;100.00;101785.53;2598520;36;20038;-56
2023/02/17 01:22:12;;;;;;;59.40;28.58;;;;;;;10.50;100.00;101782.22;2597286;36;20045;-56
2023/02/17 01:24:41;;;;;;;62.03;27.88;;;;;;;10.48;100.00;101779.66;2599451;36;20640;-54
2023/02/17 01:27:12;;;;;;;57.42;28.17;;;;;;;10.40;100.00;101775.81;2600462;36;20574;-56
2023/02/17 01:29:40;;;;;;;61.45;28.15;;;;;;;10.46;100.00;101773.50;2600767;36;20451;-56
2023/02/17 01:32:08;;;;;;;57.28;25.88;;;;;;;10.52;100.00;101766.81;2597984;36;20049;-55
2023/02/17 01:34:40;;;;;;;64.35;26.92;;;;;;;10.43;100.00;101771.03;2598596;36;20038;-58
2023/02/17 01:37:11;;;;;;;53.47;26.05;;;;;;;10.45;100.00;101766.44;2594565;36;20045;-55
2023/02/17 01:39:40;;;;;;;57.80;26.65;;;;;;;10.47;100.00;101772.53;2600870;31;20038;-56
2023/02/17 01:42:16;;;;;;;49.13;24.40;;;;;;;10.56;100.00;101770.16;2597437;36;20031;-55
2023/02/17 01:45:15;;;;;;;51.58;24.33;;;;;;;10.51;100.00;101763.28;2599487;36;20586;-54
2023/02/17 01:47:43;;;;;;;56.65;25.17;;;;;;;10.52;100.00;101764.97;2597574;36;20031;-55
2023/02/17 01:50:14;;;;;;;51.87;24.40;;;;;;;10.40;100.00;101765.88;2600531;36;20030;-58
2023/02/17 01:52:44;;;;;;;58.67;25.23;;;;;;;10.46;100.00;101757.34;2596241;36;20039;-55
2023/02/17 01:55:18;;;;;;;51.38;25.52;;;;;;;10.49;100.00;101767.03;2595692;36;20034;-54
2023/02/17 01:57:49;;;;;;;62.67;25.42;;;;;;;10.28;100.00;101756.00;2599432;36;20034;-57
2023/02/17 02:00:22;;;;;;;53.67;26.83;;;;;;;10.22;100.00;101754.63;2602749;36;20038;-57
2023/02/17 02:02:52;;;;;;;58.33;26.85;;;;;;;10.24;100.00;101770.66;2600861;36;20142;-56
2023/02/17 02:05:24;;;;;;;62.17;27.58;;;;;;;10.36;100.00;101763.53;2599125;36;20046;-54
2023/02/17 02:07:53;;;;;;;62.53;27.40;;;;;;;10.20;100.00;101769.13;2599647;36;20624;-55
2023/02/17 02:10:22;;;;;;;54.58;25.98;;;;;;;10.34;100.00;101766.34;2595752;36;20045;-58
2023/02/17 02:12:50;;;;;;;57.95;27.30;;;;;;;10.25;100.00;101756.22;2599345;36;20034;-55
2023/02/17 02:15:23;;;;;;;63.70;26.05;;;;;;;10.15;100.00;101748.81;2597561;36;20570;-51
2023/02/17 02:18:07;;;;;;;59.15;23.83;;;;;;;10.22;100.00;101740.28;2597944;36;20045;-56
2023/02/17 02:21:00;;;;;;;58.28;25.23;;;;;;;10.23;100.00;101739.31;2604356;36;20034;-56
2023/02/17 02:23:52;;;;;;;66.75;27.15;;;;;;;10.13;100.00;101726.56;2598719;36;20477;-55
2023/02/17 02:26:52;;;;;;;68.10;27.00;;;;;;;10.06;100.00;101727.97;2603713;36;20038;-55
2023/02/17 02:29:42;;;;;;;69.18;26.88;;;;;;;9.98;100.00;101716.91;2603930;36;20045;-55
2023/02/17 02:32:38;;;;;;;71.00;27.90;;;;;;;10.01;100.00;101716.66;2603869;36;20045;-56
2023/02/17 02:35:15;;;;;;;66.35;25.83;;;;;;;9.95;100.00;101719.81;2599726;36;20035;-54
2023/02/17 02:37:48;;;;;;;66.05;25.13;;;;;;;10.12;100.00;101722.13;2597493;36;20080;-55
2023/02/17 02:40:21;;;;;;;63.08;24.35;;;;;;;10.02;100.00;101723.78;2599407;36;20046;-55
2023/02/17 02:42:51;;;;;;;56.65;23.13;;;;;;;10.07;100.00;101702.81;2600415;36;20042;-55
2023/02/17 02:45:20;;;;;;;61.33;23.15;;;;;;;9.97;100.00;101699.91;2598680;36;21562;-54
2023/02/17 02:47:52;;;;;;;;;;;;;;;10.00;100.00;101701.53;2602525;36;20034;-54
2023/02/17 02:50:26;;;;;;;63.70;21.55;;;;;;;10.05;100.00;101706.56;2597724;36;19954;-57
2023/02/17 02:53:11;;;;;;;54.58;20.67;;;;;;;10.08;100.00;101707.19;2603144;36;20039;-54
2023/02/17 02:55:53;;;;;;;52.97;20.25;;;;;;;9.99;100.00;101710.56;2598590;36;20448;-56
2023/02/17 02:58:26;;;;;;;55.42;19.60;;;;;;;9.85;100.00;101714.25;2601695;36;20061;-55
2023/02/17 03:01:02;;;;;;;55.10;19.35;;;;;;;9.90;100.00;101713.91;2601093;31;20459;-55
2023/02/17 03:03:40;;;;;;;49.60;18.98;;;;;;;9.86;100.00;101707.03;2600993;31;20532;-56
2023/02/17 03:06:18;;;;;;;55.42;19.38;;;;;;;9.81;100.00;101692.09;2600719;31;20038;-56
2023/02/17 03:08:52;;;;;;;57.67;20.10;;;;;;;9.77;100.00;101690.59;2602945;31;20038;-56
2023/02/17 03:11:31;;;;;;;53.30;20.15;;;;;;;9.77;100.00;101693.28;2600444;36;20039;-56
2023/02/17 03:14:02;;;;;;;52.55;19.00;;;;;;;9.75;100.00;101700.59;2600248;36;20039;-55
2023/02/17 03:16:31;;;;;;;57.63;21.58;;;;;;;9.78;100.00;101684.25;2595811;36;20035;-56
2023/02/17 03:19:02;;;;;;;59.38;21.23;;;;;;;9.76;100.00;101678.13;2598881;31;20585;-55
2023/02/17 03:21:41;;;;;;;52.45;19.25;;;;;;;9.71;100.00;101679.44;2597871;36;20034;-59
2023/02/17 03:24:10;;;;;;;58.00;22.10;;;;;;;9.61;100.00;101666.66;2618698;36;20042;-57
2023/02/17 03:26:41;;;;;;;65.70;23.23;;;;;;;9.58;100.00;101676.75;2599648;36;20046;-54
2023/02/17 03:29:12;;;;;;;56.88;23.05;;;;;;;9.58;100.00;101682.13;2602782;36;20034;-53
2023/02/17 03:31:41;;;;;;;54.50;21.38;;;;;;;9.66;100.00;101674.38;2604219;36;20041;-57
2023/02/17 03:34:12;;;;;;;65.25;25.13;;;;;;;9.58;100.00;101666.84;2603374;31;20550;-56
2023/02/17 03:36:40;;;;;;;51.75;21.20;;;;;;;9.65;100.00;101652.00;2602332;36;20073;-53
2023/02/17 03:39:08;;;;;;;51.00;20.50;;;;;;;9.59;100.00;101643.53;2602104;36;21122;-56
2023/02/17 03:41:37;;;;;;;43.60;17.90;;;;;;;9.67;100.00;101649.19;2603157;36;20062;-56
2023/02/17 03:44:05;;;;;;;43.43;17.90;;;;;;;9.70;100.00;101642.75;2600704;31;20045;-58
2023/02/17 03:46:34;;;;;;;45.63;17.52;;;;;;;9.65;100.00;101640.41;2599256;36;20575;-54
2023/02/17 03:49:02;;;;;;;42.37;18.13;;;;;;;9.78;100.00;101635.00;2602287;36;20424;-52
2023/02/17 03:51:36;;;;;;;49.13;19.55;;;;;;;9.66;100.00;101628.69;2602469;36;20034;-55
2023/02/17 03:54:04;;;;;;;50.83;18.63;;;;;;;9.67;100.00;101621.47;2597552;36;20034;-58
2023/02/17 03:56:33;;;;;;;45.38;16.70;;;;;;;9.82;100.00;101631.97;2600376;31;20030;-55
2023/02/17 03:59:01;;;;;;;42.63;18.20;;;;;;;9.77;100.00;101636.81;2601258;31;20179;-54
2023/02/17 04:01:30;;;;;;;38.92;15.65;;;;;;;9.70;100.00;101635.56;2605007;36;20408;-53
2023/02/17 04:03:58;;;;;;;40.00;15.63;;;;;;;9.75;100.00;101625.31;2600329;36;20045;-54
2023/02/17 04:06:26;;;;;;;41.95;15.18;;;;;;;9.76;100.00;101621.69;2619901;36;20065;-54
2023/02/17 04:08:57;;;;;;;36.75;15.18;;;;;;;9.68;100.00;101634.81;2598329;36;20031;-53
2023/02/17 04:11:26;;;;;;;40.10;15.95;;;;;;;9.66;100.00;101636.75;2601783;36;20042;-56
2023/02/17 04:13:54;;;;;;;48.70;17.53;;;;;;;9.64;100.00;101623.44;2603204;36;20037;-55
2023/02/17 04:16:22;;;;;;;38.97;15.63;;;;;;;9.69;100.00;101622.22;2599253;36;20038;-56
2023/02/17 04:18:51;;;;;;;41.77;15.73;;;;;;;9.65;100.00;101626.97;2602464;36;20054;-55
2023/02/17 04:21:19;;;;;;;40.10;15.30;;;;;;;9.72;100.00;101646.22;2599929;36;20041;-57
2023/02/17 04:23:47;;;;;;;40.57;14.60;;;;;;;9.74;100.00;101655.84;2600984;36;20038;-58
2023/02/17 04:26:18;;;;;;;33.63;14.50;;;;;;;9.69;100.00;101649.97;2601204;36;20459;-55
2023/02/17 04:28:47;;;;;;;37.72;14.40;;;;;;;9.80;100.00;101658.13;2597547;36;20053;-57
2023/02/17 04:31:15;;;;;;;47.72;15.73;;;;;;;9.81;100.00;101661.66;2596899;36;20043;-56
2023/02/17 04:33:43;;;;;;;42.92;15.45;;;;;;;9.78;100.00;101657.38;2599216;36;20061;-56
2023/02/17 04:36:12;;;;;;;44.65;17.50;;;;;;;9.74;100.00;101644.25;2610210;31;20041;-58
2023/02/17 04:38:41;;;;;;;40.47;16.70;;;;;;;9.73;100.00;101639.84;2599091;36;20042;-56
2023/02/17 04:41:09;;;;;;;45.67;16.55;;;;;;;9.79;100.00;101613.38;2598777;36;20455;-53
2023/02/17 04:43:40;;;;;;;47.80;19.00;;;;;;;9.92;100.00;101628.59;2601368;36;20046;-52
2023/02/17 04:46:10;;;;;;;47.38;18.05;;;;;;;9.80;100.00;101601.66;2598152;36;20038;-54
2023/02/17 04:48:39;;;;;;;51.10;19.02;;;;;;;9.87;100.00;101614.66;2600541;36;21262;-56
2023/02/17 04:51:07;;;;;;;59.27;21.00;;;;;;;9.84;100.00;101622.94;2621074;36;20062;-55
2023/02/17 04:53:36;;;;;;;46.92;20.33;;;;;;;9.84;100.00;101618.41;2608754;36;21707;-53
2023/02/17 04:56:04;;;;;;;53.10;20.55;;;;;;;9.98;100.00;101622.75;2614725;36;20274;-54
2023/02/17 04:58:32;;;;;;;60.75;22.83;;;;;;;9.89;100.00;101610.00;2613881;36;20042;-51
2023/02/17 05:01:03;;;;;;;53.57;22.53;;;;;;;9.96;100.00;101627.41;2614529;36;20031;-56
2023/02/17 05:03:32;;;;;;;59.67;22.42;;;;;;;10.00;100.00;101623.53;2614023;36;20065;-55
2023/02/17 05:06:00;;;;;;;58.77;22.60;;;;;;;10.05;100.00;101610.59;2613759;36;20038;-56
2023/02/17 05:08:29;;;;;;;60.60;26.30;;;;;;;10.06;100.00;101606.09;2614456;36;20046;-52
2023/02/17 05:10:57;;;;;;;67.07;25.33;;;;;;;10.04;100.00;101602.63;2614799;36;20045;-55
2023/02/17 05:13:26;;;;;;;68.30;26.92;;;;;;;10.17;100.00;101616.88;2614897;36;20033;-53
2023/02/17 05:15:54;;;;;;;72.13;26.88;;;;;;;10.05;100.00;101618.66;2615599;36;20042;-57
2023/02/17 05:18:25;;;;;;;66.93;25.20;;;;;;;10.25;100.00;101621.72;2613988;36;20030;-55
2023/02/17 05:20:54;;;;;;;64.15;26.15;;;;;;;10.22;100.00;101612.03;2613956;36;20042;-56
2023/02/17 05:23:22;;;;;;;63.33;27.60;;;;;;;10.33;100.00;101619.28;2615335;36;20038;-54
2023/02/17 05:25:50;;;;;;;66.47;26.92;;;;;;;10.39;100.00;101612.59;2615521;36;20027;-52
2023/02/17 05:28:18;;;;;;;58.50;24.30;;;;;;;10.45;100.00;101620.22;2614555;31;20045;-58
2023/02/17 05:30:49;;;;;;;64.25;25.83;;;;;;;10.45;100.00;101614.84;2612626;36;20038;-56
2023/02/17 05:33:18;;;;;;;61.13;27.40;;;;;;;10.21;100.00;101618.38;2614257;36;20038;-52
2023/02/17 05:35:48;;;;;;;56.28;25.80;;;;;;;10.30;100.00;101606.06;2612952;36;20045;-55
2023/02/17 05:38:17;;;;;;;60.47;26.52;;;;;;;10.16;100.00;101589.13;2614343;36;20059;-51
2023/02/17 05:40:45;;;;;;;58.40;24.37;;;;;;;10.24;100.00;101604.69;2614708;36;20052;-52
2023/02/17 05:43:13;;;;;;;60.40;26.70;;;;;;;10.22;100.00;101603.94;2614668;36;20128;-55
2023/02/17 05:45:42;;;;;;;50.58;22.40;;;;;;;10.27;100.00;101603.59;2613297;36;20023;-55
2023/02/17 05:48:10;;;;;;;56.13;23.47;;;;;;;10.32;100.00;101587.94;2616151;31;20034;-54
2023/02/17 05:50:38;;;;;;;52.70;22.80;;;;;;;10.30;100.00;101598.00;2615539;36;20034;-55
2023/02/17 05:53:09;;;;;;;55.90;23.27;;;;;;;10.29;100.00;101593.56;2615817;36;20034;-54
2023/02/17 05:55:38;;;;;;;51.35;23.67;;;;;;;10.26;100.00;101601.88;2615037;36;20041;-53
2023/02/17 05:58:06;;;;;;;60.53;25.40;;;;;;;10.32;100.00;101587.94;2615849;36;20057;-52
2023/02/17 06:00:34;;;;;;;53.92;23.83;;;;;;;10.33;100.00;101589.69;2615302;36;20065;-54
2023/02/17 06:03:03;;;;;;;66.28;26.00;;;;;;;10.26;100.00;101581.22;2615326;36;20030;-52
2023/02/17 06:05:31;;;;;;;57.20;24.40;;;;;;;10.30;100.00;101581.84;2615460;36;20725;-56
2023/02/17 06:07:59;;;;;;;54.70;24.42;;;;;;;10.31;100.00;101586.25;2615885;36;20046;-53
2023/02/17 06:10:31;;;;;;;58.28;24.42;;;;;;;10.28;100.00;101600.78;2615409;36;20033;-54
2023/02/17 06:12:59;;;;;;;55.90;24.50;;;;;;;10.36;100.00;101597.53;2615813;36;20046;-53
2023/02/17 06:15:28;;;;;;;55.70;26.10;;;;;;;10.30;100.00;101603.38;2614923;36;20034;-55
2023/02/17 06:17:57;;;;;;;54.35;22.95;;;;;;;10.47;100.00;101594.91;2615306;36;20157;-52
2023/02/17 06:20:25;;;;;;;57.00;25.45;;;;;;;10.52;100.00;101597.25;2614758;36;20041;-54
2023/02/17 06:22:53;;;;;;;59.55;24.73;;;;;;;10.35;100.00;101593.16;2614984;36;20491;-54
2023/02/17 06:25:22;;;;;;;56.67;22.60;;;;;;;10.41;100.00;101583.75;2615799;36;20027;-52
2023/02/17 06:27:52;;;;;;;58.13;23.87;;;;;;;10.37;100.00;101577.75;2614424;36;20045;-57
2023/02/17 06:30:22;;;;;;;52.25;24.13;;;;;;;10.43;100.00;101566.50;2613590;36;20065;-55
2023/02/17 06:32:50;;;;;;;61.58;24.27;;;;;;;10.51;100.00;101580.25;2613722;36;20042;-55
2023/02/17 06:35:18;;;;;;;63.47;25.93;;;;;;;10.43;100.00;101571.03;2611410;36;20038;-52
2023/02/17 06:37:47;;;;;;;61.73;23.83;;;;;;;10.48;100.00;101564.34;2614213;36;20439;-54
2023/02/17 06:40:16;;;;;;;61.63;22.08;;;;;;;10.66;100.00;101566.59;2613574;31;20852;-56
2023/02/17 06:42:44;;;;;;;63.78;25.60;;;;;;;10.61;100.00;101552.59;2614048;36;20033;-53
2023/02/17 06:45:15;;;;;;;53.13;23.23;;;;;;;10.68;100.00;101553.84;2611523;31;20565;-54
2023/02/17 06:47:44;;;;;;;59.58;22.88;;;;;;;10.63;100.00;101567.66;2612508;36;20039;-54
2023/02/17 06:50:13;;;;;;;56.10;22.73;;;;;;;10.65;100.00;101554.09;2614105;31;20031;-52
2023/02/17 06:52:42;;;;;;;62.83;25.10;;;;;;;10.71;100.00;101559.00;2606890;31;20065;-51
2023/02/17 06:55:11;;;;;;;55.17;21.33;;;;;;;10.74;100.00;101553.38;2602412;31;20069;-55
2023/02/17 06:57:39;;;;;;;53.40;20.25;;;;;;;10.77;100.00;101563.88;2602108;36;20065;-53
2023/02/17 07:00:12;;;;;;;56.27;20.30;;;;;;;10.73;100.00;101548.09;2599524;31;20034;-55
2023/02/17 07:02:50;;;;;;;52.67;22.55;;;;;;;10.68;100.00;101532.31;2599818;36;20556;-55
2023/02/17 07:09:13;;;;;;;53.30;18.75;;;;;;;10.89;100.00;101545.91;2610612;31;20045;-57
2023/02/17 07:18:00;;;;;;;51.00;20.02;;;;;;;10.78;100.00;101575.53;2610482;36;20038;-55
2023/02/17 07:20:30;;;;;;;54.63;20.27;;;;;;;10.69;100.00;101569.88;2605537;36;20038;-52
2023/02/17 07:26:18;;;;;;;48.33;17.52;;;;;;;10.83;100.00;101568.78;2611935;36;20046;-53
2023/02/17 07:42:20;;;;;;;42.40;17.92;;;;;;;10.96;100.00;101551.69;2612062;54;20101;-55
2023/02/17 08:04:29;;;;;;;36.05;15.55;;;;;;;11.03;100.00;101525.97;2632165;31;20493;-55
2023/02/17 08:19:02;;;;;;;33.72;17.02;;;;;;;11.19;100.00;101574.09;2613790;54;20058;-55
2023/02/17 08:21:34;;;;;;;31.77;15.15;;;;;;;11.15;100.00;101580.72;2609135;36;20038;-53
2023/02/17 08:24:02;;;;;;;30.30;15.68;;;;;;;11.36;100.00;101587.06;2599946;36;20039;-56
2023/02/17 08:26:31;;;;;;;31.15;16.95;;;;;;;11.31;100.00;101578.50;2600841;36;20722;-55
2023/02/17 08:28:59;;;;;;;30.25;15.45;;;;;;;11.33;100.00;101586.47;2598965;31;20567;-56
2023/02/17 08:31:30;;;;;;;24.87;12.97;;;;;;;11.52;100.00;101592.06;2599753;31;20045;-53
2023/02/17 08:34:02;;;;;;;28.45;13.60;;;;;;;11.49;100.00;101592.31;2604654;36;20035;-53
2023/02/17 08:36:31;;;;;;;22.70;12.90;;;;;;;11.50;100.00;101588.66;2602650;36;20038;-56
2023/02/17 08:39:00;;;;;;;17.08;10.55;;;;;;;11.54;100.00;101589.25;2602215;36;20050;-57
2023/02/17 08:41:33;;;;;;;18.00;9.45;;;;;;;11.55;100.00;101597.22;2600620;36;20042;-58
2023/02/17 08:44:03;;;;;;;18.92;9.40;;;;;;;11.43;100.00;101592.81;2599375;36;20039;-54
2023/02/17 08:46:32;;;;;;;18.23;9.27;;;;;;;11.49;100.00;101589.63;2600939;36;20049;-55
2023/02/17 08:49:03;;;;;;;20.63;10.18;;;;;;;11.54;100.00;101600.91;2598802;31;20043;-56
2023/02/17 08:51:31;;;;;;;15.25;8.98;;;;;;;11.56;100.00;101631.28;2605864;36;20061;-57
2023/02/17 08:54:02;;;;;;;17.17;9.00;;;;;;;11.48;100.00;101622.09;2603805;36;20047;-53
2023/02/17 09:02:57;;;;;;;20.30;9.35;;;;;;;11.37;100.00;101604.09;2613641;36;21358;-55
2023/02/17 09:08:53;;;;;;;17.75;8.40;;;;;;;11.46;100.00;101605.19;2612058;36;20149;-55
2023/02/17 09:11:21;;;;;;;16.60;8.20;;;;;;;11.32;100.00;101606.28;2601661;36;20042;-55
2023/02/17 09:13:49;;;;;;;15.82;7.43;;;;;;;11.33;100.00;101590.00;2599772;31;20034;-55
2023/02/17 09:27:35;;;;;;;14.52;7.93;;;;;;;11.59;100.00;101576.25;2600798;36;20495;-58
2023/02/17 09:30:09;;;;;;;15.27;7.90;;;;;;;11.51;100.00;101579.59;2607251;36;20089;-56
2023/02/17 09:33:15;;;;;;;13.73;7.40;;;;;;;11.55;100.00;101590.97;2632993;36;20038;-53
2023/02/17 09:38:44;;;;;;;14.02;6.78;;;;;;;11.74;100.00;101574.16;2613571;36;20057;-56
2023/02/17 09:51:03;;;;;;;16.85;7.95;;;;;;;12.01;100.00;101581.81;2638352;31;20126;-54
2023/02/17 09:53:52;;;;;;;15.13;8.05;;;;;;;11.97;100.00;101587.59;2610270;36;20035;-55
2023/02/17 10:06:13;;;;;;;17.20;7.90;;;;;;;11.95;100.00;101586.88;2612119;36;20890;-55
2023/02/17 10:22:18;;;;;;;13.23;8.63;;;;;;;12.08;100.00;101601.91;2611360;36;20535;-55
2023/02/17 10:27:55;;;;;;;14.07;8.80;;;;;;;12.02;100.00;101605.13;2633745;36;20034;-55
2023/02/17 10:30:35;;;;;;;11.35;8.38;;;;;;;12.07;100.00;101575.06;2657213;36;20041;-56
2023/02/17 10:36:13;;;;;;;18.58;9.63;;;;;;;12.20;100.00;101600.03;2612082;36;20404;-55
2023/02/17 10:47:44;;;;;;;13.00;8.75;;;;;;;12.08;100.00;101631.59;2610067;36;20043;-58
2023/02/17 10:50:24;;;;;;;15.70;8.23;;;;;;;12.20;100.00;101621.63;2605293;36;20436;-56
2023/02/17 10:52:58;;;;;;;12.77;7.82;;;;;;;12.35;100.00;101615.91;2609009;36;20547;-56
2023/02/17 10:55:37;;;;;;;14.57;8.10;;;;;;;12.29;100.00;101644.28;2605995;36;20042;-55
2023/02/17 10:58:13;;;;;;;13.30;7.28;;;;;;;12.36;100.00;101640.09;2602073;36;20951;-56
2023/02/17 11:00:44;;;;;;;12.20;7.13;;;;;;;12.27;100.00;101635.47;2600358;31;20046;-55
2023/02/17 11:03:24;;;;;;;13.32;7.00;;;;;;;12.22;100.00;101660.16;2601279;36;20038;-56
2023/02/17 11:05:58;;;;;;;15.27;7.03;;;;;;;12.30;100.00;101656.81;2606410;36;20496;-56
2023/02/17 11:08:33;;;;;;;11.13;6.40;;;;;;;12.21;100.00;101661.13;2608161;36;20046;-57
2023/02/17 11:11:04;;;;;;;8.63;5.05;;;;;;;12.21;100.00;101658.41;2600720;36;20045;-54
2023/02/17 11:13:37;;;;;;;10.85;5.75;;;;;;;12.20;100.00;101656.69;2606100;36;20054;-58
2023/02/17 11:16:10;;;;;;;12.93;5.90;;;;;;;12.19;100.00;101673.91;2603876;31;20038;-57
2023/02/17 11:18:51;;;;;;;11.77;5.90;;;;;;;12.27;100.00;101660.59;2600373;36;20041;-54
2023/02/17 11:21:32;;;;;;;10.85;5.13;;;;;;;12.14;100.00;101680.66;2611311;36;20042;-57
2023/02/17 11:24:26;;;;;;;12.77;5.85;;;;;;;12.04;100.00;101684.13;2613316;36;20444;-57
2023/02/17 11:26:59;;;;;;;18.38;5.70;;;;;;;12.19;100.00;101682.00;2611996;36;20171;-53
2023/02/17 11:29:28;;;;;;;12.38;4.93;;;;;;;12.15;100.00;101677.81;2611257;36;20582;-55
2023/02/17 11:32:03;;;;;;;11.02;5.10;;;;;;;12.38;100.00;101681.31;2612988;36;20041;-55
2023/02/17 11:34:37;;;;;;;12.30;5.70;;;;;;;12.23;100.00;101694.25;2613699;36;20027;-57
2023/02/17 11:37:25;;;;;;;9.40;5.50;;;;;;;12.18;100.00;101682.97;2610723;36;20560;-57
2023/02/17 11:40:00;;;;;;;11.13;4.80;;;;;;;12.26;100.00;101687.72;2614974;36;20045;-55
2023/02/17 11:42:37;;;;;;;10.05;5.07;;;;;;;12.17;100.00;101665.06;2612908;36;20034;-57
2023/02/17 11:45:20;;;;;;;11.63;4.90;;;;;;;12.27;100.00;101665.16;2614033;36;20047;-56
2023/02/17 11:48:12;;;;;;;12.57;5.10;;;;;;;12.27;100.00;101660.59;2614294;36;20452;-55
2023/02/17 11:50:53;;;;;;;9.45;5.18;;;;;;;12.20;100.00;101678.28;2613289;36;20034;-53
2023/02/17 11:53:27;;;;;;;11.43;4.53;;;;;;;12.30;100.00;101688.34;2617115;36;20532;-56
2023/02/17 11:56:07;;;;;;;10.27;4.85;;;;;;;12.26;100.00;101694.00;2617967;36;20030;-55
2023/02/17 11:58:51;;;;;;;10.23;4.68;;;;;;;12.18;100.00;101699.16;2617125;36;20027;-55
2023/02/17 12:01:36;;;;;;;16.45;5.07;;;;;;;12.21;100.00;101696.22;2617618;36;20026;-55
2023/02/17 12:04:29;;;;;;;14.50;5.53;;;;;;;12.05;100.00;101696.59;2617423;36;20053;-56
2023/02/17 12:07:29;;;;;;;11.93;5.25;;;;;;;12.18;100.00;101718.06;2617464;36;20038;-54
2023/02/17 12:10:04;;;;;;;12.32;5.32;;;;;;;12.14;100.00;101724.69;2616890;36;20027;-56
2023/02/17 12:12:44;;;;;;;10.68;4.95;;;;;;;12.15;100.00;101739.06;2617136;36;20041;-56
2023/02/17 12:15:29;;;;;;;14.00;6.22;;;;;;;12.15;100.00;101734.50;2617097;36;20026;-54
2023/02/17 12:18:05;;;;;;;12.07;5.13;;;;;;;12.11;100.00;101729.47;2616280;36;20439;-57
2023/02/17 12:20:44;;;;;;;9.90;5.22;;;;;;;12.07;100.00;101729.72;2615413;36;20033;-58
2023/02/17 12:23:28;;;;;;;15.43;5.97;;;;;;;11.94;100.00;101726.31;2615167;36;20038;-52
2023/02/17 12:26:01;;;;;;;15.40;5.85;;;;;;;11.77;100.00;101751.03;2615461;36;20041;-55
2023/02/17 12:28:43;;;;;;;15.63;6.40;;;;;;;11.92;100.00;101755.19;2614027;36;20039;-53
2023/02/17 12:31:28;;;;;;;13.93;5.80;;;;;;;11.85;100.00;101762.94;2613187;36;20045;-55
2023/02/17 12:34:03;;;;;;;12.50;6.55;;;;;;;11.78;100.00;101769.81;2614771;36;20615;-54
2023/02/17 12:36:35;;;;;;;13.60;6.95;;;;;;;11.66;100.00;101743.78;2614903;36;20084;-54
2023/02/17 12:39:16;;;;;;;14.65;7.05;;;;;;;11.79;100.00;101744.53;2615198;36;20038;-53
2023/02/17 12:41:48;;;;;;;17.48;8.05;;;;;;;11.79;100.00;101746.38;2614388;36;20042;-55
2023/02/17 12:44:22;;;;;;;16.02;7.20;;;;;;;11.66;100.00;101741.97;2613566;36;20033;-51
2023/02/17 13:09:39;;;;;;;16.52;6.75;;;;;;;11.92;100.00;101745.28;2614473;36;20786;-56
2023/02/17 13:13:02;;;;;;;13.75;5.88;;;;;;;12.01;100.00;101738.28;2621912;36;20420;-54
2023/02/17 13:15:36;;;;;;;12.55;6.85;;;;;;;11.98;100.00;101745.78;2614046;31;20038;-51
2023/02/17 13:18:06;;;;;;;13.02;6.60;;;;;;;12.05;100.00;101744.31;2619019;36;20038;-53
2023/02/17 13:20:54;;;;;;;16.55;6.78;;;;;;;12.01;100.00;101723.97;2613041;36;20137;-54
2023/02/17 13:23:33;;;;;;;19.05;7.35;;;;;;;12.11;100.00;101737.56;2613428;36;21606;-54
2023/02/17 13:26:30;;;;;;;14.95;6.88;;;;;;;12.22;100.00;101741.13;2614380;31;20031;-53
2023/02/17 13:29:35;;;;;;;14.52;6.90;;;;;;;12.36;100.00;101742.66;2614903;31;20034;-56
2023/02/17 13:32:06;;;;;;;14.93;6.68;;;;;;;12.52;100.00;101747.66;2614699;36;20502;-56
2023/02/17 13:34:36;;;;;;;15.63;5.75;;;;;;;12.40;100.00;101748.69;2615020;31;20479;-55
2023/02/17 13:37:20;;;;;;;15.35;6.00;;;;;;;12.27;100.00;101744.28;2612954;36;20182;-56
2023/02/17 13:39:48;;;;;;;13.45;5.50;;;;;;;12.36;100.00;101749.91;2613932;36;20531;-56
2023/02/17 13:42:39;;;;;;;12.13;5.30;;;;;;;12.21;100.00;101739.38;2613883;36;20045;-56
2023/02/17 13:45:19;;;;;;;16.42;5.25;;;;;;;12.34;100.00;101738.41;2614614;36;20042;-54
2023/02/17 13:47:50;;;;;;;9.93;5.18;;;;;;;12.20;100.00;101743.06;2614779;36;20497;-55
2023/02/17 13:50:31;;;;;;;15.45;5.60;;;;;;;12.30;100.00;101748.56;2614076;36;20030;-52
2023/02/17 13:53:01;;;;;;;12.95;5.07;;;;;;;12.23;100.00;101753.63;2607281;36;20034;-56
2023/02/17 13:55:29;;;;;;;;;;;;;;;12.25;100.00;101740.84;2603955;36;20135;-55
2023/02/17 13:58:01;;;;;;;10.75;5.05;;;;;;;12.30;100.00;101737.78;2598850;36;20506;-52
2023/02/17 14:00:33;;;;;;;9.63;4.68;;;;;;;12.33;100.00;101725.88;2604960;31;20154;-54
2023/02/17 14:03:17;;;;;;;15.75;5.38;;;;;;;12.58;100.00;101719.31;2602689;36;20035;-55
2023/02/17 14:05:47;;;;;;;10.63;4.70;;;;;;;12.60;100.00;101733.53;2607307;36;20030;-52
2023/02/17 14:08:21;;;;;;;17.48;4.97;;;;;;;12.66;100.00;101724.94;2608500;36;20045;-55